sensor_id;sensor_type;location;lat;lon;timestamp;P1;durP1;ratioP1;P2;durP2;ratioP2
67585;SDS011;55785;47.946;20.540;2023-05-21T00:02:16;8.90;;;3.40;;
67585;SDS011;55785;47.946;20.540;2023-05-21T00:04:44;4.75;;;3.42;;
67585;SDS011;55785;47.946;20.540;2023-05-21T00:07:10;8.43;;;3.92;;
67585;SDS011;55785;47.946;20.540;2023-05-21T00:09:36;5.03;;;3.17;;
67585;SDS011;55785;47.946;20.540;2023-05-21T00:12:01;5.05;;;3.10;;
67585;SDS011;55785;47.946;20.540;2023-05-21T00:14:27;4.00;;;2.88;;
67585;SDS011;55785;47.946;20.540;2023-05-21T00:16:52;5.65;;;3.33;;
67585;SDS011;55785;47.946;20.540;2023-05-21T00:19:17;6.13;;;3.10;;
67585;SDS011;55785;47.946;20.540;2023-05-21T00:21:43;4.25;;;2.90;;
67585;SDS011;55785;47.946;20.540;2023-05-21T00:24:08;3.78;;;2.80;;
67585;SDS011;55785;47.946;20.540;2023-05-21T00:26:33;4.63;;;2.75;;
67585;SDS011;55785;47.946;20.540;2023-05-21T00:28:59;5.68;;;3.20;;
67585;SDS011;55785;47.946;20.540;2023-05-21T00:31:24;4.07;;;2.85;;
67585;SDS011;55785;47.946;20.540;2023-05-21T00:33:49;8.88;;;3.20;;
67585;SDS011;55785;47.946;20.540;2023-05-21T00:36:15;4.88;;;3.00;;
67585;SDS011;55785;47.946;20.540;2023-05-21T00:38:41;5.65;;;3.03;;
67585;SDS011;55785;47.946;20.540;2023-05-21T00:41:06;4.97;;;3.25;;
67585;SDS011;55785;47.946;20.540;2023-05-21T00:43:32;4.10;;;2.80;;
67585;SDS011;55785;47.946;20.540;2023-05-21T00:45:57;4.50;;;2.83;;
67585;SDS011;55785;47.946;20.540;2023-05-21T00:48:23;6.60;;;2.97;;
67585;SDS011;55785;47.946;20.540;2023-05-21T00:50:48;4.05;;;2.70;;
67585;SDS011;55785;47.946;20.540;2023-05-21T00:53:14;5.47;;;3.00;;
67585;SDS011;55785;47.946;20.540;2023-05-21T00:55:40;6.65;;;3.13;;
67585;SDS011;55785;47.946;20.540;2023-05-21T00:58:05;5.88;;;3.33;;
67585;SDS011;55785;47.946;20.540;2023-05-21T01:00:32;6.25;;;3.33;;
67585;SDS011;55785;47.946;20.540;2023-05-21T01:02:59;6.00;;;3.25;;
67585;SDS011;55785;47.946;20.540;2023-05-21T01:05:25;5.32;;;3.33;;
67585;SDS011;55785;47.946;20.540;2023-05-21T01:07:53;5.93;;;3.50;;
67585;SDS011;55785;47.946;20.540;2023-05-21T01:10:20;5.15;;;3.28;;
67585;SDS011;55785;47.946;20.540;2023-05-21T01:12:45;5.38;;;3.03;;
67585;SDS011;55785;47.946;20.540;2023-05-21T01:15:11;5.43;;;3.40;;
67585;SDS011;55785;47.946;20.540;2023-05-21T01:17:37;4.82;;;3.30;;
67585;SDS011;55785;47.946;20.540;2023-05-21T01:20:03;4.50;;;2.97;;
67585;SDS011;55785;47.946;20.540;2023-05-21T01:22:30;4.97;;;3.03;;
67585;SDS011;55785;47.946;20.540;2023-05-21T01:24:56;5.57;;;3.15;;
67585;SDS011;55785;47.946;20.540;2023-05-21T01:27:21;4.95;;;3.30;;
67585;SDS011;55785;47.946;20.540;2023-05-21T01:29:46;6.88;;;3.55;;
67585;SDS011;55785;47.946;20.540;2023-05-21T01:38:03;5.03;;;3.10;;
67585;SDS011;55785;47.946;20.540;2023-05-21T01:40:44;6.45;;;3.35;;
67585;SDS011;55785;47.946;20.540;2023-05-21T01:43:16;5.93;;;3.45;;
67585;SDS011;55785;47.946;20.540;2023-05-21T01:45:43;6.05;;;3.25;;
67585;SDS011;55785;47.946;20.540;2023-05-21T01:48:10;5.18;;;3.55;;
67585;SDS011;55785;47.946;20.540;2023-05-21T01:50:36;4.28;;;3.15;;
67585;SDS011;55785;47.946;20.540;2023-05-21T01:53:04;4.80;;;3.20;;
67585;SDS011;55785;47.946;20.540;2023-05-21T01:55:29;4.35;;;3.08;;
67585;SDS011;55785;47.946;20.540;2023-05-21T01:57:55;5.82;;;3.30;;
67585;SDS011;55785;47.946;20.540;2023-05-21T02:00:21;5.75;;;3.40;;
67585;SDS011;55785;47.946;20.540;2023-05-21T02:02:48;4.55;;;3.10;;
67585;SDS011;55785;47.946;20.540;2023-05-21T02:05:14;4.43;;;2.83;;
67585;SDS011;55785;47.946;20.540;2023-05-21T02:07:39;4.80;;;3.20;;
67585;SDS011;55785;47.946;20.540;2023-05-21T02:10:05;4.50;;;2.95;;
67585;SDS011;55785;47.946;20.540;2023-05-21T02:12:31;5.50;;;3.10;;
67585;SDS011;55785;47.946;20.540;2023-05-21T02:14:56;8.00;;;3.30;;
67585;SDS011;55785;47.946;20.540;2023-05-21T02:17:22;4.03;;;2.97;;
67585;SDS011;55785;47.946;20.540;2023-05-21T02:19:47;4.40;;;2.92;;
67585;SDS011;55785;47.946;20.540;2023-05-21T02:22:12;4.50;;;2.88;;
67585;SDS011;55785;47.946;20.540;2023-05-21T02:24:38;5.70;;;3.30;;
67585;SDS011;55785;47.946;20.540;2023-05-21T02:27:03;4.55;;;3.17;;
67585;SDS011;55785;47.946;20.540;2023-05-21T02:29:29;4.40;;;3.15;;
67585;SDS011;55785;47.946;20.540;2023-05-21T02:31:54;6.35;;;3.08;;
67585;SDS011;55785;47.946;20.540;2023-05-21T02:34:19;4.38;;;3.20;;
67585;SDS011;55785;47.946;20.540;2023-05-21T02:36:45;7.32;;;2.95;;
67585;SDS011;55785;47.946;20.540;2023-05-21T02:39:11;6.25;;;3.17;;
67585;SDS011;55785;47.946;20.540;2023-05-21T02:41:36;5.30;;;2.92;;
67585;SDS011;55785;47.946;20.540;2023-05-21T02:44:01;4.97;;;3.00;;
67585;SDS011;55785;47.946;20.540;2023-05-21T02:46:27;4.85;;;3.10;;
67585;SDS011;55785;47.946;20.540;2023-05-21T02:48:52;4.03;;;2.83;;
67585;SDS011;55785;47.946;20.540;2023-05-21T02:51:17;5.72;;;3.03;;
67585;SDS011;55785;47.946;20.540;2023-05-21T02:53:42;9.68;;;3.22;;
67585;SDS011;55785;47.946;20.540;2023-05-21T02:56:08;3.88;;;2.78;;
67585;SDS011;55785;47.946;20.540;2023-05-21T02:58:33;7.10;;;3.30;;
67585;SDS011;55785;47.946;20.540;2023-05-21T03:00:58;4.53;;;3.00;;
67585;SDS011;55785;47.946;20.540;2023-05-21T03:03:24;5.82;;;2.83;;
67585;SDS011;55785;47.946;20.540;2023-05-21T03:05:49;7.13;;;3.10;;
67585;SDS011;55785;47.946;20.540;2023-05-21T03:08:14;4.00;;;3.00;;
67585;SDS011;55785;47.946;20.540;2023-05-21T03:10:40;6.78;;;3.00;;
67585;SDS011;55785;47.946;20.540;2023-05-21T03:13:05;5.07;;;3.15;;
67585;SDS011;55785;47.946;20.540;2023-05-21T03:15:30;6.50;;;3.25;;
67585;SDS011;55785;47.946;20.540;2023-05-21T03:17:56;8.05;;;3.47;;
67585;SDS011;55785;47.946;20.540;2023-05-21T03:20:21;7.22;;;3.30;;
67585;SDS011;55785;47.946;20.540;2023-05-21T03:22:46;6.25;;;3.35;;
67585;SDS011;55785;47.946;20.540;2023-05-21T03:25:12;6.05;;;3.33;;
67585;SDS011;55785;47.946;20.540;2023-05-21T03:27:37;5.90;;;3.50;;
67585;SDS011;55785;47.946;20.540;2023-05-21T03:30:03;4.85;;;3.30;;
67585;SDS011;55785;47.946;20.540;2023-05-21T03:32:29;6.88;;;3.40;;
67585;SDS011;55785;47.946;20.540;2023-05-21T03:34:55;5.55;;;3.58;;
67585;SDS011;55785;47.946;20.540;2023-05-21T03:37:20;6.43;;;3.50;;
67585;SDS011;55785;47.946;20.540;2023-05-21T03:39:46;5.85;;;3.38;;
67585;SDS011;55785;47.946;20.540;2023-05-21T03:42:11;5.05;;;3.25;;
67585;SDS011;55785;47.946;20.540;2023-05-21T03:44:36;7.30;;;3.70;;
67585;SDS011;55785;47.946;20.540;2023-05-21T03:47:02;5.45;;;3.40;;
67585;SDS011;55785;47.946;20.540;2023-05-21T03:49:27;6.38;;;3.10;;
67585;SDS011;55785;47.946;20.540;2023-05-21T03:51:52;5.57;;;3.20;;
67585;SDS011;55785;47.946;20.540;2023-05-21T03:54:18;5.53;;;3.50;;
67585;SDS011;55785;47.946;20.540;2023-05-21T03:56:43;6.90;;;3.40;;
67585;SDS011;55785;47.946;20.540;2023-05-21T03:59:08;5.55;;;3.10;;
67585;SDS011;55785;47.946;20.540;2023-05-21T04:01:34;5.45;;;3.00;;
67585;SDS011;55785;47.946;20.540;2023-05-21T04:03:59;4.78;;;2.95;;
67585;SDS011;55785;47.946;20.540;2023-05-21T04:06:24;4.38;;;2.78;;
67585;SDS011;55785;47.946;20.540;2023-05-21T04:08:50;4.75;;;3.10;;
67585;SDS011;55785;47.946;20.540;2023-05-21T04:11:15;7.88;;;3.22;;
67585;SDS011;55785;47.946;20.540;2023-05-21T04:13:40;5.70;;;3.17;;
67585;SDS011;55785;47.946;20.540;2023-05-21T04:16:06;4.28;;;3.10;;
67585;SDS011;55785;47.946;20.540;2023-05-21T04:18:31;5.57;;;3.10;;
67585;SDS011;55785;47.946;20.540;2023-05-21T04:20:56;5.70;;;3.20;;
67585;SDS011;55785;47.946;20.540;2023-05-21T04:23:22;4.80;;;2.90;;
67585;SDS011;55785;47.946;20.540;2023-05-21T04:25:47;6.32;;;3.10;;
67585;SDS011;55785;47.946;20.540;2023-05-21T04:28:13;6.25;;;2.88;;
67585;SDS011;55785;47.946;20.540;2023-05-21T04:30:38;7.05;;;3.35;;
67585;SDS011;55785;47.946;20.540;2023-05-21T04:33:03;7.32;;;3.00;;
67585;SDS011;55785;47.946;20.540;2023-05-21T04:35:29;5.38;;;2.78;;
67585;SDS011;55785;47.946;20.540;2023-05-21T04:37:54;5.55;;;3.63;;
67585;SDS011;55785;47.946;20.540;2023-05-21T04:40:19;5.53;;;2.97;;
67585;SDS011;55785;47.946;20.540;2023-05-21T04:42:45;6.22;;;3.15;;
67585;SDS011;55785;47.946;20.540;2023-05-21T04:45:10;4.70;;;3.08;;
67585;SDS011;55785;47.946;20.540;2023-05-21T04:47:36;5.75;;;3.03;;
67585;SDS011;55785;47.946;20.540;2023-05-21T04:50:02;5.13;;;3.17;;
67585;SDS011;55785;47.946;20.540;2023-05-21T04:52:27;5.43;;;3.00;;
67585;SDS011;55785;47.946;20.540;2023-05-21T04:54:53;5.50;;;3.30;;
67585;SDS011;55785;47.946;20.540;2023-05-21T04:57:18;6.32;;;3.20;;
67585;SDS011;55785;47.946;20.540;2023-05-21T04:59:43;4.35;;;2.95;;
67585;SDS011;55785;47.946;20.540;2023-05-21T05:02:09;4.55;;;2.92;;
67585;SDS011;55785;47.946;20.540;2023-05-21T05:04:34;4.60;;;3.28;;
67585;SDS011;55785;47.946;20.540;2023-05-21T05:06:59;6.45;;;2.92;;
67585;SDS011;55785;47.946;20.540;2023-05-21T05:09:25;6.68;;;3.00;;
67585;SDS011;55785;47.946;20.540;2023-05-21T05:11:50;5.30;;;2.80;;
67585;SDS011;55785;47.946;20.540;2023-05-21T05:14:15;5.60;;;3.22;;
67585;SDS011;55785;47.946;20.540;2023-05-21T05:16:41;5.65;;;3.03;;
67585;SDS011;55785;47.946;20.540;2023-05-21T05:19:06;5.20;;;3.30;;
67585;SDS011;55785;47.946;20.540;2023-05-21T05:21:32;6.50;;;3.38;;
67585;SDS011;55785;47.946;20.540;2023-05-21T05:23:57;6.38;;;3.30;;
67585;SDS011;55785;47.946;20.540;2023-05-21T05:26:22;3.45;;;2.80;;
67585;SDS011;55785;47.946;20.540;2023-05-21T05:28:48;5.22;;;2.80;;
67585;SDS011;55785;47.946;20.540;2023-05-21T05:31:13;6.70;;;3.25;;
67585;SDS011;55785;47.946;20.540;2023-05-21T05:33:38;6.53;;;3.10;;
67585;SDS011;55785;47.946;20.540;2023-05-21T05:36:04;5.50;;;3.13;;
67585;SDS011;55785;47.946;20.540;2023-05-21T05:38:29;4.22;;;3.08;;
67585;SDS011;55785;47.946;20.540;2023-05-21T05:40:55;5.53;;;3.22;;
67585;SDS011;55785;47.946;20.540;2023-05-21T05:43:20;6.03;;;3.22;;
67585;SDS011;55785;47.946;20.540;2023-05-21T05:45:45;5.40;;;3.20;;
67585;SDS011;55785;47.946;20.540;2023-05-21T05:48:11;4.18;;;3.00;;
67585;SDS011;55785;47.946;20.540;2023-05-21T05:50:36;4.22;;;3.03;;
67585;SDS011;55785;47.946;20.540;2023-05-21T05:53:01;5.63;;;3.08;;
67585;SDS011;55785;47.946;20.540;2023-05-21T05:55:27;4.57;;;2.95;;
67585;SDS011;55785;47.946;20.540;2023-05-21T05:57:52;8.70;;;2.90;;
67585;SDS011;55785;47.946;20.540;2023-05-21T06:00:18;5.03;;;2.67;;
67585;SDS011;55785;47.946;20.540;2023-05-21T06:02:43;6.38;;;2.92;;
67585;SDS011;55785;47.946;20.540;2023-05-21T06:05:08;5.88;;;2.90;;
67585;SDS011;55785;47.946;20.540;2023-05-21T06:07:36;3.28;;;2.40;;
67585;SDS011;55785;47.946;20.540;2023-05-21T06:10:02;3.97;;;2.70;;
67585;SDS011;55785;47.946;20.540;2023-05-21T06:12:28;3.78;;;2.70;;
67585;SDS011;55785;47.946;20.540;2023-05-21T06:14:53;5.55;;;3.22;;
67585;SDS011;55785;47.946;20.540;2023-05-21T06:17:18;4.95;;;2.88;;
67585;SDS011;55785;47.946;20.540;2023-05-21T06:19:43;7.75;;;2.65;;
67585;SDS011;55785;47.946;20.540;2023-05-21T06:22:09;5.85;;;2.70;;
67585;SDS011;55785;47.946;20.540;2023-05-21T06:24:34;5.45;;;3.00;;
67585;SDS011;55785;47.946;20.540;2023-05-21T06:26:59;6.85;;;2.60;;
67585;SDS011;55785;47.946;20.540;2023-05-21T06:29:25;4.20;;;2.83;;
67585;SDS011;55785;47.946;20.540;2023-05-21T06:31:50;4.38;;;2.60;;
67585;SDS011;55785;47.946;20.540;2023-05-21T06:34:15;3.72;;;2.60;;
67585;SDS011;55785;47.946;20.540;2023-05-21T06:36:41;4.00;;;2.50;;
67585;SDS011;55785;47.946;20.540;2023-05-21T06:39:06;5.10;;;2.80;;
67585;SDS011;55785;47.946;20.540;2023-05-21T06:41:31;6.32;;;2.97;;
67585;SDS011;55785;47.946;20.540;2023-05-21T06:43:57;5.05;;;2.85;;
67585;SDS011;55785;47.946;20.540;2023-05-21T06:46:22;10.70;;;2.83;;
67585;SDS011;55785;47.946;20.540;2023-05-21T06:48:47;3.78;;;2.58;;
67585;SDS011;55785;47.946;20.540;2023-05-21T06:51:13;6.55;;;2.83;;
67585;SDS011;55785;47.946;20.540;2023-05-21T06:53:38;7.75;;;2.78;;
67585;SDS011;55785;47.946;20.540;2023-05-21T06:56:03;5.63;;;2.70;;
67585;SDS011;55785;47.946;20.540;2023-05-21T06:58:29;5.22;;;2.60;;
67585;SDS011;55785;47.946;20.540;2023-05-21T07:00:54;3.90;;;2.67;;
67585;SDS011;55785;47.946;20.540;2023-05-21T07:03:20;3.38;;;2.63;;
67585;SDS011;55785;47.946;20.540;2023-05-21T07:05:45;3.90;;;2.30;;
67585;SDS011;55785;47.946;20.540;2023-05-21T07:08:10;3.63;;;2.65;;
67585;SDS011;55785;47.946;20.540;2023-05-21T07:10:36;4.78;;;2.60;;
67585;SDS011;55785;47.946;20.540;2023-05-21T07:13:01;8.65;;;2.60;;
67585;SDS011;55785;47.946;20.540;2023-05-21T07:15:26;6.50;;;2.50;;
67585;SDS011;55785;47.946;20.540;2023-05-21T07:17:52;6.57;;;2.88;;
67585;SDS011;55785;47.946;20.540;2023-05-21T07:20:17;5.43;;;2.35;;
67585;SDS011;55785;47.946;20.540;2023-05-21T07:22:42;6.15;;;2.70;;
67585;SDS011;55785;47.946;20.540;2023-05-21T07:25:08;5.35;;;2.45;;
67585;SDS011;55785;47.946;20.540;2023-05-21T07:27:33;5.53;;;2.60;;
67585;SDS011;55785;47.946;20.540;2023-05-21T07:29:59;7.65;;;2.55;;
67585;SDS011;55785;47.946;20.540;2023-05-21T07:32:24;4.22;;;2.70;;
67585;SDS011;55785;47.946;20.540;2023-05-21T07:34:49;3.78;;;2.28;;
67585;SDS011;55785;47.946;20.540;2023-05-21T07:37:15;5.90;;;2.55;;
67585;SDS011;55785;47.946;20.540;2023-05-21T07:39:40;3.65;;;2.50;;
67585;SDS011;55785;47.946;20.540;2023-05-21T07:42:05;3.22;;;2.38;;
67585;SDS011;55785;47.946;20.540;2023-05-21T07:44:30;4.47;;;2.50;;
67585;SDS011;55785;47.946;20.540;2023-05-21T07:46:56;5.82;;;3.03;;
67585;SDS011;55785;47.946;20.540;2023-05-21T07:49:22;4.82;;;2.55;;
67585;SDS011;55785;47.946;20.540;2023-05-21T07:51:47;6.45;;;2.38;;
67585;SDS011;55785;47.946;20.540;2023-05-21T07:54:13;5.75;;;2.70;;
67585;SDS011;55785;47.946;20.540;2023-05-21T07:56:38;3.20;;;2.40;;
67585;SDS011;55785;47.946;20.540;2023-05-21T07:59:04;4.85;;;2.75;;
67585;SDS011;55785;47.946;20.540;2023-05-21T08:01:29;4.35;;;3.08;;
67585;SDS011;55785;47.946;20.540;2023-05-21T08:03:54;3.40;;;2.63;;
67585;SDS011;55785;47.946;20.540;2023-05-21T08:06:20;3.38;;;2.58;;
67585;SDS011;55785;47.946;20.540;2023-05-21T08:08:45;4.60;;;2.92;;
67585;SDS011;55785;47.946;20.540;2023-05-21T08:11:10;5.63;;;3.00;;
67585;SDS011;55785;47.946;20.540;2023-05-21T08:13:36;5.60;;;3.15;;
67585;SDS011;55785;47.946;20.540;2023-05-21T08:16:01;4.70;;;2.55;;
67585;SDS011;55785;47.946;20.540;2023-05-21T08:18:26;8.32;;;3.20;;
67585;SDS011;55785;47.946;20.540;2023-05-21T08:20:52;4.63;;;2.83;;
67585;SDS011;55785;47.946;20.540;2023-05-21T08:23:17;4.38;;;3.10;;
67585;SDS011;55785;47.946;20.540;2023-05-21T08:25:42;5.20;;;3.10;;
67585;SDS011;55785;47.946;20.540;2023-05-21T08:28:08;5.15;;;3.05;;
67585;SDS011;55785;47.946;20.540;2023-05-21T08:30:33;6.53;;;3.00;;
67585;SDS011;55785;47.946;20.540;2023-05-21T08:32:58;6.05;;;2.90;;
67585;SDS011;55785;47.946;20.540;2023-05-21T08:35:24;5.22;;;3.00;;
67585;SDS011;55785;47.946;20.540;2023-05-21T08:37:49;4.18;;;2.55;;
67585;SDS011;55785;47.946;20.540;2023-05-21T08:40:14;3.58;;;2.60;;
67585;SDS011;55785;47.946;20.540;2023-05-21T08:42:46;8.52;;;2.60;;
67585;SDS011;55785;47.946;20.540;2023-05-21T08:45:20;5.35;;;2.50;;
67585;SDS011;55785;47.946;20.540;2023-05-21T08:47:46;6.28;;;2.40;;
67585;SDS011;55785;47.946;20.540;2023-05-21T08:50:13;4.80;;;3.00;;
67585;SDS011;55785;47.946;20.540;2023-05-21T08:52:40;6.00;;;3.03;;
67585;SDS011;55785;47.946;20.540;2023-05-21T08:55:06;6.43;;;2.95;;
67585;SDS011;55785;47.946;20.540;2023-05-21T08:57:32;3.88;;;2.60;;
67585;SDS011;55785;47.946;20.540;2023-05-21T08:59:58;7.60;;;2.97;;
67585;SDS011;55785;47.946;20.540;2023-05-21T09:02:23;5.82;;;2.90;;
67585;SDS011;55785;47.946;20.540;2023-05-21T09:04:49;5.70;;;2.80;;
67585;SDS011;55785;47.946;20.540;2023-05-21T09:07:17;5.05;;;2.35;;
67585;SDS011;55785;47.946;20.540;2023-05-21T09:10:15;4.20;;;2.40;;
67585;SDS011;55785;47.946;20.540;2023-05-21T09:12:36;4.55;;;2.65;;
67585;SDS011;55785;47.946;20.540;2023-05-21T09:15:02;6.20;;;2.60;;
67585;SDS011;55785;47.946;20.540;2023-05-21T09:17:28;3.50;;;2.45;;
67585;SDS011;55785;47.946;20.540;2023-05-21T09:20:09;3.55;;;2.72;;
67585;SDS011;55785;47.946;20.540;2023-05-21T09:22:38;6.03;;;2.40;;
67585;SDS011;55785;47.946;20.540;2023-05-21T09:25:08;6.57;;;2.50;;
67585;SDS011;55785;47.946;20.540;2023-05-21T09:27:35;4.50;;;2.40;;
67585;SDS011;55785;47.946;20.540;2023-05-21T09:30:01;6.38;;;2.50;;
67585;SDS011;55785;47.946;20.540;2023-05-21T09:32:33;4.10;;;2.40;;
67585;SDS011;55785;47.946;20.540;2023-05-21T09:35:09;6.07;;;2.70;;
67585;SDS011;55785;47.946;20.540;2023-05-21T09:37:36;4.43;;;2.50;;
67585;SDS011;55785;47.946;20.540;2023-05-21T09:40:17;4.95;;;2.72;;
67585;SDS011;55785;47.946;20.540;2023-05-21T09:42:53;3.78;;;2.35;;
67585;SDS011;55785;47.946;20.540;2023-05-21T09:45:22;5.97;;;2.50;;
67585;SDS011;55785;47.946;20.540;2023-05-21T09:47:50;5.13;;;2.50;;
67585;SDS011;55785;47.946;20.540;2023-05-21T09:50:17;5.97;;;2.20;;
67585;SDS011;55785;47.946;20.540;2023-05-21T09:52:50;2.80;;;2.17;;
67585;SDS011;55785;47.946;20.540;2023-05-21T09:55:16;4.15;;;2.60;;
67585;SDS011;55785;47.946;20.540;2023-05-21T10:00:20;3.72;;;2.08;;
67585;SDS011;55785;47.946;20.540;2023-05-21T10:02:52;2.75;;;2.10;;
67585;SDS011;55785;47.946;20.540;2023-05-21T10:05:19;6.10;;;2.10;;
67585;SDS011;55785;47.946;20.540;2023-05-21T10:07:48;4.10;;;2.35;;
67585;SDS011;55785;47.946;20.540;2023-05-21T10:10:15;5.10;;;2.20;;
67585;SDS011;55785;47.946;20.540;2023-05-21T10:12:46;4.28;;;2.40;;
67585;SDS011;55785;47.946;20.540;2023-05-21T10:15:16;3.42;;;2.15;;
67585;SDS011;55785;47.946;20.540;2023-05-21T10:17:46;4.35;;;2.17;;
67585;SDS011;55785;47.946;20.540;2023-05-21T10:20:13;4.45;;;2.20;;
67585;SDS011;55785;47.946;20.540;2023-05-21T10:22:39;5.00;;;2.30;;
67585;SDS011;55785;47.946;20.540;2023-05-21T10:25:06;4.15;;;2.10;;
67585;SDS011;55785;47.946;20.540;2023-05-21T10:27:32;4.38;;;2.33;;
67585;SDS011;55785;47.946;20.540;2023-05-21T10:30:02;2.97;;;2.17;;
67585;SDS011;55785;47.946;20.540;2023-05-21T10:32:29;3.67;;;2.42;;
67585;SDS011;55785;47.946;20.540;2023-05-21T10:34:55;3.33;;;2.35;;
67585;SDS011;55785;47.946;20.540;2023-05-21T10:37:24;3.72;;;2.10;;
67585;SDS011;55785;47.946;20.540;2023-05-21T10:39:51;5.95;;;2.20;;
67585;SDS011;55785;47.946;20.540;2023-05-21T10:50:26;2.80;;;2.10;;
67585;SDS011;55785;47.946;20.540;2023-05-21T10:55:28;3.97;;;2.00;;
67585;SDS011;55785;47.946;20.540;2023-05-21T10:58:39;4.30;;;2.30;;
67585;SDS011;55785;47.946;20.540;2023-05-21T11:01:12;2.80;;;2.10;;
67585;SDS011;55785;47.946;20.540;2023-05-21T11:03:38;3.03;;;2.20;;
67585;SDS011;55785;47.946;20.540;2023-05-21T11:06:04;3.20;;;2.30;;
67585;SDS011;55785;47.946;20.540;2023-05-21T11:08:30;3.53;;;2.38;;
67585;SDS011;55785;47.946;20.540;2023-05-21T11:10:56;3.78;;;2.00;;
67585;SDS011;55785;47.946;20.540;2023-05-21T11:13:23;5.32;;;2.40;;
67585;SDS011;55785;47.946;20.540;2023-05-21T11:21:08;4.22;;;2.20;;
67585;SDS011;55785;47.946;20.540;2023-05-21T11:26:15;3.10;;;2.35;;
67585;SDS011;55785;47.946;20.540;2023-05-21T11:28:40;4.18;;;2.40;;
67585;SDS011;55785;47.946;20.540;2023-05-21T11:31:24;5.20;;;2.25;;
67585;SDS011;55785;47.946;20.540;2023-05-21T11:36:43;5.78;;;2.60;;
67585;SDS011;55785;47.946;20.540;2023-05-21T11:39:09;5.88;;;2.78;;
67585;SDS011;55785;47.946;20.540;2023-05-21T11:44:39;5.18;;;2.10;;
67585;SDS011;55785;47.946;20.540;2023-05-21T11:47:07;3.47;;;2.30;;
67585;SDS011;55785;47.946;20.540;2023-05-21T11:49:34;4.60;;;2.50;;
67585;SDS011;55785;47.946;20.540;2023-05-21T11:52:00;2.85;;;2.33;;
67585;SDS011;55785;47.946;20.540;2023-05-21T11:54:30;3.42;;;2.13;;
67585;SDS011;55785;47.946;20.540;2023-05-21T11:56:56;4.20;;;2.70;;
67585;SDS011;55785;47.946;20.540;2023-05-21T11:59:22;4.05;;;2.40;;
67585;SDS011;55785;47.946;20.540;2023-05-21T12:01:47;4.35;;;2.35;;
67585;SDS011;55785;47.946;20.540;2023-05-21T12:04:13;3.25;;;2.38;;
67585;SDS011;55785;47.946;20.540;2023-05-21T12:06:41;3.95;;;2.63;;
67585;SDS011;55785;47.946;20.540;2023-05-21T12:09:09;4.80;;;2.50;;
67585;SDS011;55785;47.946;20.540;2023-05-21T12:11:39;6.53;;;2.60;;
67585;SDS011;55785;47.946;20.540;2023-05-21T12:14:07;3.88;;;2.58;;
67585;SDS011;55785;47.946;20.540;2023-05-21T12:16:36;3.55;;;2.30;;
67585;SDS011;55785;47.946;20.540;2023-05-21T12:19:04;3.63;;;2.35;;
67585;SDS011;55785;47.946;20.540;2023-05-21T12:21:30;2.78;;;2.30;;
67585;SDS011;55785;47.946;20.540;2023-05-21T12:23:59;4.38;;;2.25;;
67585;SDS011;55785;47.946;20.540;2023-05-21T12:26:30;7.38;;;2.75;;
67585;SDS011;55785;47.946;20.540;2023-05-21T12:29:07;4.40;;;2.38;;
67585;SDS011;55785;47.946;20.540;2023-05-21T12:31:50;4.20;;;2.40;;
67585;SDS011;55785;47.946;20.540;2023-05-21T12:37:16;6.53;;;2.45;;
67585;SDS011;55785;47.946;20.540;2023-05-21T12:39:48;4.20;;;2.38;;
67585;SDS011;55785;47.946;20.540;2023-05-21T12:42:25;4.00;;;2.53;;
67585;SDS011;55785;47.946;20.540;2023-05-21T12:44:57;4.72;;;2.42;;
67585;SDS011;55785;47.946;20.540;2023-05-21T12:47:41;3.25;;;2.22;;
67585;SDS011;55785;47.946;20.540;2023-05-21T12:50:11;3.17;;;2.20;;
67585;SDS011;55785;47.946;20.540;2023-05-21T12:52:40;3.42;;;2.10;;
67585;SDS011;55785;47.946;20.540;2023-05-21T12:55:05;2.88;;;2.40;;
67585;SDS011;55785;47.946;20.540;2023-05-21T12:57:35;3.03;;;2.30;;
67585;SDS011;55785;47.946;20.540;2023-05-21T13:00:04;4.20;;;2.20;;
67585;SDS011;55785;47.946;20.540;2023-05-21T13:05:23;3.60;;;2.33;;
67585;SDS011;55785;47.946;20.540;2023-05-21T13:07:57;4.57;;;2.30;;
67585;SDS011;55785;47.946;20.540;2023-05-21T13:10:23;2.38;;;2.17;;
67585;SDS011;55785;47.946;20.540;2023-05-21T13:12:48;3.72;;;2.30;;
67585;SDS011;55785;47.946;20.540;2023-05-21T13:15:13;5.05;;;2.58;;
67585;SDS011;55785;47.946;20.540;2023-05-21T13:17:45;5.28;;;2.20;;
67585;SDS011;55785;47.946;20.540;2023-05-21T13:20:18;3.78;;;2.17;;
67585;SDS011;55785;47.946;20.540;2023-05-21T13:22:50;3.88;;;2.40;;
67585;SDS011;55785;47.946;20.540;2023-05-21T13:25:20;2.75;;;2.20;;
67585;SDS011;55785;47.946;20.540;2023-05-21T13:28:07;5.05;;;2.50;;
67585;SDS011;55785;47.946;20.540;2023-05-21T13:30:36;5.10;;;2.58;;
67585;SDS011;55785;47.946;20.540;2023-05-21T13:33:02;4.28;;;2.40;;
67585;SDS011;55785;47.946;20.540;2023-05-21T13:35:27;3.20;;;2.20;;
67585;SDS011;55785;47.946;20.540;2023-05-21T13:37:55;3.25;;;2.15;;
67585;SDS011;55785;47.946;20.540;2023-05-21T13:40:21;2.83;;;2.13;;
67585;SDS011;55785;47.946;20.540;2023-05-21T13:43:10;5.35;;;2.22;;
67585;SDS011;55785;47.946;20.540;2023-05-21T13:45:47;4.20;;;2.10;;
67585;SDS011;55785;47.946;20.540;2023-05-21T13:48:12;4.47;;;2.10;;
67585;SDS011;55785;47.946;20.540;2023-05-21T13:50:38;4.03;;;2.10;;
67585;SDS011;55785;47.946;20.540;2023-05-21T13:53:03;4.75;;;2.15;;
67585;SDS011;55785;47.946;20.540;2023-05-21T13:55:28;2.45;;;2.10;;
67585;SDS011;55785;47.946;20.540;2023-05-21T13:57:56;4.82;;;2.28;;
67585;SDS011;55785;47.946;20.540;2023-05-21T14:00:27;4.43;;;2.20;;
67585;SDS011;55785;47.946;20.540;2023-05-21T14:03:26;4.32;;;2.33;;
67585;SDS011;55785;47.946;20.540;2023-05-21T14:05:55;3.17;;;2.22;;
67585;SDS011;55785;47.946;20.540;2023-05-21T14:08:24;4.15;;;2.50;;
67585;SDS011;55785;47.946;20.540;2023-05-21T14:10:49;3.78;;;2.15;;
67585;SDS011;55785;47.946;20.540;2023-05-21T14:13:29;4.55;;;2.30;;
67585;SDS011;55785;47.946;20.540;2023-05-21T14:16:04;3.80;;;2.10;;
67585;SDS011;55785;47.946;20.540;2023-05-21T14:18:39;5.15;;;2.40;;
67585;SDS011;55785;47.946;20.540;2023-05-21T14:21:14;3.78;;;2.20;;
67585;SDS011;55785;47.946;20.540;2023-05-21T14:23:46;3.75;;;2.47;;
67585;SDS011;55785;47.946;20.540;2023-05-21T14:26:14;4.70;;;2.17;;
67585;SDS011;55785;47.946;20.540;2023-05-21T14:28:43;5.07;;;2.40;;
67585;SDS011;55785;47.946;20.540;2023-05-21T14:31:20;3.30;;;2.25;;
67585;SDS011;55785;47.946;20.540;2023-05-21T14:33:48;2.83;;;2.15;;
67585;SDS011;55785;47.946;20.540;2023-05-21T14:36:16;3.15;;;2.30;;
67585;SDS011;55785;47.946;20.540;2023-05-21T14:38:41;3.05;;;2.60;;
67585;SDS011;55785;47.946;20.540;2023-05-21T14:41:16;4.00;;;2.55;;
67585;SDS011;55785;47.946;20.540;2023-05-21T14:43:44;4.53;;;2.67;;
67585;SDS011;55785;47.946;20.540;2023-05-21T14:46:09;3.50;;;2.30;;
67585;SDS011;55785;47.946;20.540;2023-05-21T14:48:58;4.00;;;2.50;;
67585;SDS011;55785;47.946;20.540;2023-05-21T14:51:31;4.60;;;2.45;;
67585;SDS011;55785;47.946;20.540;2023-05-21T14:54:00;6.10;;;2.53;;
67585;SDS011;55785;47.946;20.540;2023-05-21T14:56:27;3.05;;;2.38;;
67585;SDS011;55785;47.946;20.540;2023-05-21T14:58:53;3.72;;;2.58;;
67585;SDS011;55785;47.946;20.540;2023-05-21T15:01:18;4.32;;;2.45;;
67585;SDS011;55785;47.946;20.540;2023-05-21T15:03:44;4.25;;;2.17;;
67585;SDS011;55785;47.946;20.540;2023-05-21T15:06:09;5.57;;;2.35;;
67585;SDS011;55785;47.946;20.540;2023-05-21T15:08:34;3.67;;;2.50;;
67585;SDS011;55785;47.946;20.540;2023-05-21T15:11:00;7.97;;;2.60;;
67585;SDS011;55785;47.946;20.540;2023-05-21T15:13:25;3.75;;;2.58;;